Terminal Aerodrome Forecast
Issued by NWS

Home | Current Version | Previous Version | Text Only | Print | Product List | Glossary On
Versions: 1 2 3 4 5 6 7 8 9 10 11 12 13 14 15 16 17 18 19
000
FTUS46 KPDT 231225 AAA
TAFDLS
TAF AMD
KDLS 231225Z 2312/2412 VRB04KT 5SM BR FEW008 FEW200
     FM231300 12004KT 3SM BR SCT008
      TEMPO 2313/2316 2SM BR OVC008
     FM231600 VRB04KT 5SM BR BKN008
      TEMPO 2317/2318 6SM BR FEW008 SCT100
     FM231800 30007KT P6SM SCT080
     FM240000 12004KT P6SM SKC=

USA.gov is the U.S. government's official web portal to all federal, state and local government web resources and services.